This is the latest recevied weather packets stored in our database for station/object DL1VED. If no packets are shown the sender has not sent any weather packets the latest 10 day(s).
| Time | Temp. | Humidity | Pressure | Rain* | Wind** | Luminosity | Snow |
|---|---|---|---|---|---|---|---|
| 1777971548 | 18.89° C | 58% | 1008.2 hPa | 0 mm | - | - | - |
| 1777970648 | 20° C | 56% | 1008.2 hPa | 0 mm | - | - | - |
| 1777969748 | 19.44° C | 53% | 1008.3 hPa | 0 mm | - | - | - |
| 1777968848 | 18.89° C | 58% | 1008.3 hPa | 0 mm | - | - | - |
| 1777967948 | 18.33° C | 63% | 1008.5 hPa | 0 mm | - | - | - |
| 1777967048 | 17.22° C | 68% | 1008.5 hPa | 0 mm | - | - | - |
| 1777966148 | 16.11° C | 70% | 1008.7 hPa | 0 mm | - | - | - |
| 1777965248 | 16.11° C | 71% | 1008.8 hPa | 0 mm | - | - | - |
| 1777964348 | 15.56° C | 71% | 1008.9 hPa | 0 mm | - | - | - |
| 1777963448 | 15.56° C | 71% | 1008.8 hPa | 0 mm | - | - | - |
| 1777962548 | 15° C | 74% | 1008.9 hPa | 0 mm | - | - | - |
| 1777961648 | 15° C | 76% | 1008.9 hPa | 0 mm | - | - | - |
| 1777960748 | 14.44° C | 77% | 1009.1 hPa | 0 mm | - | - | - |
| 1777959848 | 14.44° C | 78% | 1009 hPa | 0 mm | - | - | - |
| 1777958948 | 13.89° C | 79% | 1008.9 hPa | 0 mm | - | - | - |
| 1777958048 | 13.33° C | 81% | 1008.9 hPa | 0 mm | - | - | - |
| 1777957148 | 13.33° C | 81% | 1009 hPa | 0 mm | - | - | - |
| 1777956248 | 13.33° C | 81% | 1009 hPa | 0 mm | - | - | - |
| 1777955348 | 13.33° C | 81% | 1009 hPa | 0 mm | - | - | - |
| 1777954448 | 13.33° C | 81% | 1009 hPa | 0 mm | - | - | - |
| 1777953548 | 13.33° C | 79% | 1009.1 hPa | 0 mm | - | - | - |
| 1777952648 | 13.33° C | 79% | 1009.2 hPa | 0 mm | - | - | - |
| 1777951748 | 13.33° C | 79% | 1009.3 hPa | 0 mm | - | - | - |
| 1777950848 | 13.89° C | 78% | 1009.7 hPa | 0 mm | - | - | - |
| 1777949948 | 13.89° C | 78% | 1009.5 hPa | 0 mm | - | - | - |
* Rain latest hour (hover to see other rain measurements)
** Current wind speed in m/s (hover to see current wind gust speed)